createdAt,value
2023-04-23T00:01:28.045Z,12.02
2023-04-23T00:03:58.636Z,10.45
2023-04-23T00:06:27.114Z,8.65
2023-04-23T00:08:55.576Z,9.90
2023-04-23T00:11:23.442Z,8.00
2023-04-23T00:13:51.185Z,12.32
2023-04-23T00:16:20.629Z,8.23
2023-04-23T00:18:48.375Z,6.47
2023-04-23T00:21:15.779Z,8.85
2023-04-23T00:23:43.098Z,10.82
2023-04-23T00:26:10.633Z,9.05
2023-04-23T00:28:37.866Z,8.25
2023-04-23T00:31:05.819Z,10.00
2023-04-23T00:33:33.248Z,12.02
2023-04-23T00:36:00.936Z,8.95
2023-04-23T00:38:28.666Z,9.73
2023-04-23T00:40:56.160Z,7.90
2023-04-23T00:43:24.237Z,11.48
2023-04-23T00:45:51.948Z,11.02
2023-04-23T00:48:19.372Z,8.63
2023-04-23T00:50:47.566Z,7.95
2023-04-23T00:53:14.840Z,8.48
2023-04-23T00:55:42.551Z,9.80
2023-04-23T00:58:09.910Z,8.18
2023-04-23T01:00:46.548Z,11.05
2023-04-23T01:03:14.478Z,9.18
2023-04-23T01:05:43.162Z,9.57
2023-04-23T01:08:15.692Z,10.32
2023-04-23T01:10:44.852Z,12.60
2023-04-23T01:13:13.790Z,9.63
2023-04-23T01:15:41.361Z,8.15
2023-04-23T01:18:08.796Z,11.07
2023-04-23T01:20:36.524Z,10.32
2023-04-23T01:23:05.507Z,9.60
2023-04-23T01:25:32.931Z,9.55
2023-04-23T01:28:00.441Z,9.70
2023-04-23T01:30:28.414Z,8.55
2023-04-23T01:32:56.529Z,10.98
2023-04-23T01:35:25.425Z,8.13
2023-04-23T01:37:55.470Z,13.15
2023-04-23T01:40:23.239Z,11.32
2023-04-23T01:42:50.884Z,8.05
2023-04-23T01:45:20.297Z,8.27
2023-04-23T01:47:48.082Z,8.25
2023-04-23T01:50:15.905Z,12.95
2023-04-23T01:52:45.010Z,10.52
2023-04-23T01:55:12.360Z,10.32
2023-04-23T01:57:40.193Z,7.82
2023-04-23T02:00:11.475Z,8.73
2023-04-23T02:02:42.289Z,9.65
2023-04-23T02:05:12.560Z,10.57
2023-04-23T02:07:40.599Z,10.65
2023-04-23T02:10:08.677Z,7.82
2023-04-23T02:12:37.739Z,12.57
2023-04-23T02:15:07.483Z,10.23
2023-04-23T02:17:35.627Z,7.18
2023-04-23T02:20:03.722Z,8.00
2023-04-23T02:22:31.849Z,8.73
2023-04-23T02:25:00.038Z,7.30
2023-04-23T02:27:27.533Z,10.93
2023-04-23T02:29:54.974Z,8.30
2023-04-23T02:32:22.377Z,12.70
2023-04-23T02:34:49.856Z,8.65
2023-04-23T02:37:17.103Z,7.25
2023-04-23T02:39:44.562Z,9.95
2023-04-23T02:42:12.632Z,8.20
2023-04-23T02:44:40.136Z,7.43
2023-04-23T02:47:07.518Z,8.35
2023-04-23T02:49:34.951Z,8.10
2023-04-23T02:52:02.400Z,7.72
2023-04-23T02:54:29.769Z,9.85
2023-04-23T02:56:57.906Z,7.97
2023-04-23T02:59:25.838Z,7.25
2023-04-23T03:01:53.355Z,7.53
2023-04-23T03:04:21.222Z,7.68
2023-04-23T03:06:49.449Z,7.90
2023-04-23T03:09:16.921Z,7.93
2023-04-23T03:11:44.539Z,7.95
2023-04-23T03:14:14.184Z,9.25
2023-04-23T03:16:41.739Z,7.13
2023-04-23T03:19:09.320Z,9.57
2023-04-23T03:21:36.758Z,7.53
2023-04-23T03:24:04.381Z,8.63
2023-04-23T03:26:31.798Z,7.15
2023-04-23T03:28:59.158Z,7.10
2023-04-23T03:31:26.489Z,8.82
2023-04-23T03:33:54.038Z,6.65
2023-04-23T03:36:28.859Z,8.23
2023-04-23T03:38:56.716Z,7.80
2023-04-23T03:41:24.471Z,7.10
2023-04-23T03:43:51.939Z,8.38
2023-04-23T03:46:30.005Z,7.95
2023-04-23T03:48:57.721Z,9.45
2023-04-23T03:51:28.265Z,7.90
2023-04-23T03:53:55.857Z,6.40
2023-04-23T03:56:26.954Z,6.95
2023-04-23T03:59:08.345Z,8.35
2023-04-23T04:01:36.647Z,6.90
2023-04-23T04:04:04.349Z,7.30
2023-04-23T04:06:33.747Z,7.45
2023-04-23T04:09:01.006Z,6.25
2023-04-23T04:11:29.538Z,7.35
2023-04-23T04:13:56.848Z,6.95
2023-04-23T04:16:24.378Z,6.78
2023-04-23T04:18:52.482Z,6.93
2023-04-23T04:21:20.885Z,7.50
2023-04-23T04:23:48.331Z,6.40
2023-04-23T04:26:15.806Z,6.78
2023-04-23T04:28:43.129Z,6.80
2023-04-23T04:31:10.610Z,7.53
2023-04-23T04:33:39.874Z,9.07
2023-04-23T04:36:09.656Z,7.63
2023-04-23T04:38:38.108Z,7.53
2023-04-23T04:41:06.589Z,8.13
2023-04-23T04:43:34.652Z,8.13
2023-04-23T04:46:01.996Z,8.15
2023-04-23T04:48:29.326Z,8.02
2023-04-23T04:50:56.976Z,7.80
2023-04-23T04:53:24.235Z,7.35
2023-04-23T04:55:52.051Z,7.82
2023-04-23T04:58:19.414Z,7.13
2023-04-23T05:00:48.218Z,7.30
2023-04-23T05:03:15.649Z,11.82
2023-04-23T05:05:43.475Z,7.60
2023-04-23T05:08:11.109Z,6.75
2023-04-23T05:10:38.970Z,8.02
2023-04-23T05:13:06.477Z,7.50
2023-04-23T05:15:34.027Z,7.72
2023-04-23T05:18:04.601Z,7.85
2023-04-23T05:20:32.126Z,8.68
2023-04-23T05:22:59.699Z,7.88
2023-04-23T05:25:27.395Z,8.07
2023-04-23T05:27:54.706Z,7.57
2023-04-23T05:30:22.096Z,8.05
2023-04-23T05:32:50.164Z,8.77
2023-04-23T05:35:17.661Z,8.35
2023-04-23T05:37:44.921Z,8.85
2023-04-23T05:40:13.021Z,10.20
2023-04-23T05:42:40.360Z,8.57
2023-04-23T05:45:08.970Z,8.27
2023-04-23T05:47:37.023Z,8.45
2023-04-23T05:50:05.546Z,8.50
2023-04-23T05:52:35.779Z,8.85
2023-04-23T05:55:03.325Z,9.40
2023-04-23T05:57:30.718Z,11.68
2023-04-23T05:59:58.035Z,8.65
2023-04-23T06:02:25.602Z,8.98
2023-04-23T06:04:53.400Z,9.43
2023-04-23T06:07:21.216Z,9.13
2023-04-23T06:09:48.709Z,9.80
2023-04-23T06:12:16.775Z,9.07
2023-04-23T06:14:44.177Z,9.70
2023-04-23T06:17:11.553Z,7.63
2023-04-23T06:19:38.955Z,12.07
2023-04-23T06:22:06.269Z,8.65
2023-04-23T06:24:33.652Z,7.85
2023-04-23T06:27:03.020Z,7.47
2023-04-23T06:29:33.170Z,7.63
2023-04-23T06:32:05.159Z,7.60
2023-04-23T06:34:32.502Z,8.15
2023-04-23T06:36:59.791Z,8.65
2023-04-23T06:39:27.271Z,8.10
2023-04-23T06:41:54.803Z,7.40
2023-04-23T06:44:32.309Z,10.23
2023-04-23T06:46:59.860Z,7.90
2023-04-23T06:49:27.525Z,8.40
2023-04-23T06:51:57.644Z,7.13
2023-04-23T06:54:25.836Z,9.50
2023-04-23T06:56:54.277Z,9.38
2023-04-23T06:59:21.817Z,7.10
2023-04-23T07:01:52.877Z,7.43
2023-04-23T07:04:20.386Z,8.05
2023-04-23T07:06:47.730Z,8.70
2023-04-23T07:09:15.130Z,8.40
2023-04-23T07:11:42.524Z,8.45
2023-04-23T07:14:09.875Z,8.70
2023-04-23T07:16:37.273Z,6.88
2023-04-23T07:19:04.728Z,6.97
2023-04-23T07:21:33.214Z,6.63
2023-04-23T07:24:00.923Z,8.55
2023-04-23T07:26:28.314Z,7.40
2023-04-23T07:28:55.977Z,8.63
2023-04-23T07:31:24.005Z,8.65
2023-04-23T07:33:51.371Z,8.55
2023-04-23T07:36:18.673Z,8.07
2023-04-23T07:38:46.410Z,7.95
2023-04-23T07:41:14.026Z,9.90
2023-04-23T07:43:41.617Z,10.80
2023-04-23T07:46:09.405Z,13.40
2023-04-23T07:48:36.784Z,11.15
2023-04-23T07:51:04.269Z,8.75
2023-04-23T07:53:31.614Z,13.27
2023-04-23T07:55:58.918Z,8.85
2023-04-23T07:58:26.394Z,7.60
2023-04-23T08:00:53.707Z,11.88
2023-04-23T08:03:21.375Z,9.70
2023-04-23T08:05:48.842Z,11.35
2023-04-23T08:08:16.211Z,10.98
2023-04-23T08:10:43.636Z,11.98
2023-04-23T08:13:11.502Z,7.82
2023-04-23T08:15:38.840Z,14.75
2023-04-23T08:18:06.481Z,9.82
2023-04-23T08:20:34.633Z,10.20
2023-04-23T08:23:02.199Z,10.10
2023-04-23T08:25:29.515Z,13.35
2023-04-23T08:27:56.998Z,13.85
2023-04-23T08:30:24.550Z,14.45
2023-04-23T08:32:54.125Z,12.20
2023-04-23T08:35:22.461Z,10.90
2023-04-23T08:37:49.837Z,15.32
2023-04-23T08:40:17.414Z,14.15
2023-04-23T08:42:48.137Z,14.63
2023-04-23T08:45:15.837Z,13.80
2023-04-23T08:47:44.012Z,17.17
2023-04-23T08:50:14.653Z,12.70
2023-04-23T08:52:46.141Z,15.25
2023-04-23T08:55:16.142Z,15.88
2023-04-23T08:57:43.470Z,16.98
2023-04-23T09:00:12.553Z,18.77
2023-04-23T09:02:41.990Z,17.70
2023-04-23T09:05:09.872Z,16.15
2023-04-23T09:07:37.852Z,19.05
2023-04-23T09:10:07.298Z,15.98
2023-04-23T09:12:36.791Z,16.80
2023-04-23T09:15:06.867Z,19.25
2023-04-23T09:17:35.893Z,14.70
2023-04-23T09:20:04.070Z,13.90
2023-04-23T09:22:34.451Z,13.68
2023-04-23T09:25:02.435Z,20.27
2023-04-23T09:27:29.781Z,15.20
2023-04-23T09:29:57.880Z,14.30
2023-04-23T09:32:33.662Z,16.42
2023-04-23T09:35:04.773Z,15.00
2023-04-23T09:37:33.220Z,14.13
2023-04-23T09:40:04.371Z,15.63
2023-04-23T09:42:33.110Z,19.42
2023-04-23T09:45:04.742Z,17.25
2023-04-23T09:47:34.878Z,18.02
2023-04-23T09:50:02.821Z,20.83
2023-04-23T09:52:34.307Z,16.45
2023-04-23T09:55:03.039Z,16.98
2023-04-23T09:57:30.431Z,21.30
2023-04-23T10:00:07.301Z,15.18
2023-04-23T10:02:40.382Z,17.52
2023-04-23T10:05:22.788Z,18.95
2023-04-23T10:07:52.192Z,15.73
2023-04-23T10:10:20.588Z,15.38
2023-04-23T10:12:54.730Z,11.88
2023-04-23T10:15:27.233Z,14.73
2023-04-23T10:17:56.025Z,21.77
2023-04-23T10:20:24.203Z,16.67
2023-04-23T10:22:54.960Z,20.75
2023-04-23T10:25:24.710Z,18.83
2023-04-23T10:27:56.371Z,14.20
2023-04-23T10:30:23.848Z,12.70
2023-04-23T10:32:51.581Z,13.75
2023-04-23T10:35:19.214Z,16.63
2023-04-23T10:37:48.364Z,16.13
2023-04-23T10:40:22.398Z,11.65
2023-04-23T10:42:50.748Z,15.32
2023-04-23T10:45:24.864Z,18.52
2023-04-23T10:47:56.576Z,14.57
2023-04-23T10:50:27.500Z,14.73
2023-04-23T10:52:58.120Z,12.95
2023-04-23T10:55:28.530Z,17.63
2023-04-23T10:58:01.199Z,14.13
2023-04-23T11:00:42.186Z,11.90
2023-04-23T11:03:12.698Z,11.18
2023-04-23T11:05:40.218Z,12.27
2023-04-23T11:08:18.821Z,14.43
2023-04-23T11:10:50.529Z,15.25
2023-04-23T11:13:21.270Z,10.00
2023-04-23T11:15:48.800Z,10.35
2023-04-23T11:18:16.189Z,14.07
2023-04-23T11:20:43.609Z,11.18
2023-04-23T11:23:32.731Z,15.70
2023-04-23T11:26:01.369Z,17.45
2023-04-23T11:28:30.558Z,11.13
2023-04-23T11:30:59.509Z,12.88
2023-04-23T11:33:27.473Z,18.90
2023-04-23T11:35:55.074Z,13.38
2023-04-23T11:38:22.514Z,18.45
2023-04-23T11:40:53.511Z,16.65
2023-04-23T11:43:21.336Z,12.63
2023-04-23T11:45:49.612Z,11.90
2023-04-23T11:48:18.414Z,11.30
2023-04-23T11:50:45.634Z,11.63
2023-04-23T11:53:14.374Z,11.02
2023-04-23T11:55:44.342Z,6.38
2023-04-23T11:58:11.611Z,9.02
2023-04-23T12:00:38.925Z,8.07
2023-04-23T12:03:06.665Z,10.38
2023-04-23T12:05:37.595Z,10.98
2023-04-23T12:08:09.530Z,5.03
2023-04-23T12:10:39.826Z,7.32
2023-04-23T12:13:07.020Z,6.22
2023-04-23T12:15:45.450Z,8.43
2023-04-23T12:18:12.811Z,5.82
2023-04-23T12:20:40.509Z,8.60
2023-04-23T12:23:08.480Z,6.68
2023-04-23T12:25:36.841Z,6.30
2023-04-23T12:28:05.191Z,9.25
2023-04-23T12:30:34.712Z,7.20
2023-04-23T12:33:03.460Z,7.55
2023-04-23T12:35:51.605Z,9.20
2023-04-23T12:38:22.873Z,7.55
2023-04-23T12:40:50.520Z,9.30
2023-04-23T12:43:17.814Z,10.43
2023-04-23T12:45:45.870Z,7.35
2023-04-23T12:48:13.893Z,8.07
2023-04-23T12:50:41.875Z,6.93
2023-04-23T12:53:09.066Z,6.82
2023-04-23T12:55:37.045Z,8.98
2023-04-23T12:58:04.265Z,6.20
2023-04-23T13:00:31.885Z,7.32
2023-04-23T13:02:59.217Z,8.90
2023-04-23T13:05:26.777Z,5.05
2023-04-23T13:07:53.942Z,9.23
2023-04-23T13:10:21.320Z,6.18
2023-04-23T13:12:48.563Z,8.18
2023-04-23T13:15:15.709Z,10.25
2023-04-23T13:17:42.865Z,5.95
2023-04-23T13:20:10.458Z,9.82
2023-04-23T13:22:37.634Z,7.57
2023-04-23T13:25:05.261Z,6.88
2023-04-23T13:27:32.582Z,8.70
2023-04-23T13:29:59.871Z,8.15
2023-04-23T13:32:31.916Z,6.55
2023-04-23T13:35:01.984Z,11.25
2023-04-23T13:37:31.535Z,10.90
2023-04-23T13:39:58.930Z,8.57
2023-04-23T13:42:26.154Z,12.13
2023-04-23T13:44:53.337Z,9.73
2023-04-23T13:47:20.542Z,9.43
2023-04-23T13:49:48.525Z,8.55
2023-04-23T13:52:15.762Z,12.85
2023-04-23T13:54:43.014Z,11.18
2023-04-23T13:57:10.194Z,11.98
2023-04-23T13:59:37.437Z,13.57
2023-04-23T14:02:04.578Z,12.05
2023-04-23T14:04:31.967Z,9.77
2023-04-23T14:06:59.114Z,9.77
2023-04-23T14:09:26.494Z,10.18
2023-04-23T14:11:53.749Z,12.77
2023-04-23T14:14:22.204Z,11.98
2023-04-23T14:16:49.392Z,13.65
2023-04-23T14:19:17.288Z,10.38
2023-04-23T14:21:45.267Z,10.50
2023-04-23T14:24:22.349Z,7.38
2023-04-23T14:26:50.205Z,8.88
2023-04-23T14:29:21.772Z,11.35
2023-04-23T14:31:49.252Z,13.65
2023-04-23T14:34:16.504Z,15.00
2023-04-23T14:36:44.687Z,9.35
2023-04-23T14:39:12.481Z,13.05
2023-04-23T14:41:41.177Z,11.98
2023-04-23T14:44:08.643Z,11.57
2023-04-23T14:46:36.021Z,14.82
2023-04-23T14:49:03.961Z,10.65
2023-04-23T14:51:31.422Z,14.20
2023-04-23T14:53:58.682Z,14.23
2023-04-23T14:56:27.494Z,13.40
2023-04-23T14:58:54.608Z,14.63
2023-04-23T15:01:21.978Z,14.45
2023-04-23T15:03:49.416Z,11.90
2023-04-23T15:06:16.849Z,12.52
2023-04-23T15:08:44.009Z,11.60
2023-04-23T15:11:13.604Z,10.38
2023-04-23T15:13:50.259Z,10.75
2023-04-23T15:16:26.320Z,13.32
2023-04-23T15:19:06.606Z,14.45
2023-04-23T15:21:34.042Z,17.70
2023-04-23T15:24:01.273Z,19.60
2023-04-23T15:26:30.089Z,14.88
2023-04-23T15:28:57.246Z,15.10
2023-04-23T15:31:24.504Z,16.55
2023-04-23T15:33:51.754Z,16.73
2023-04-23T15:36:18.969Z,19.70
2023-04-23T15:38:46.214Z,13.60
2023-04-23T15:41:14.296Z,15.70
2023-04-23T15:43:41.481Z,19.88
2023-04-23T15:46:08.921Z,18.23
2023-04-23T15:48:36.607Z,15.85
2023-04-23T15:51:03.968Z,23.30
2023-04-23T15:53:31.125Z,15.40
2023-04-23T15:55:58.432Z,21.13
2023-04-23T15:58:25.540Z,19.35
2023-04-23T16:00:52.794Z,17.55
2023-04-23T16:03:20.248Z,15.63
2023-04-23T16:05:50.614Z,22.98
2023-04-23T16:08:17.898Z,16.27
2023-04-23T16:10:45.217Z,16.65
2023-04-23T16:13:12.520Z,21.70
2023-04-23T16:15:39.822Z,18.35
2023-04-23T16:18:07.153Z,21.48
2023-04-23T16:20:34.459Z,15.15
2023-04-23T16:23:01.721Z,24.92
2023-04-23T16:25:29.099Z,19.00
2023-04-23T16:27:56.688Z,23.58
2023-04-23T16:30:24.686Z,22.10
2023-04-23T16:32:52.209Z,22.00
2023-04-23T16:35:19.494Z,22.50
2023-04-23T16:37:46.672Z,25.40
2023-04-23T16:40:15.793Z,17.92
2023-04-23T16:42:43.948Z,25.92
2023-04-23T16:45:11.872Z,21.77
2023-04-23T16:47:39.083Z,24.85
2023-04-23T16:50:07.039Z,22.25
2023-04-23T16:52:34.355Z,19.80
2023-04-23T16:55:01.755Z,18.17
2023-04-23T16:57:29.684Z,20.20
2023-04-23T16:59:56.925Z,25.55
2023-04-23T17:02:24.644Z,20.25
2023-04-23T17:04:52.400Z,19.52
2023-04-23T17:07:19.696Z,23.02
2023-04-23T17:09:47.422Z,23.83
2023-04-23T17:12:14.682Z,23.52
2023-04-23T17:14:42.280Z,18.48
2023-04-23T17:17:09.586Z,22.38
2023-04-23T17:19:36.916Z,21.27
2023-04-23T17:22:04.056Z,20.25
2023-04-23T17:24:31.361Z,29.05
2023-04-23T17:26:58.921Z,21.42
2023-04-23T17:29:26.296Z,25.20
2023-04-23T17:31:53.570Z,21.98
2023-04-23T17:34:20.991Z,18.27
2023-04-23T17:36:48.492Z,25.35
2023-04-23T17:39:20.000Z,19.23
2023-04-23T17:41:47.303Z,28.80
2023-04-23T17:44:14.654Z,19.83
2023-04-23T17:46:41.908Z,24.00
2023-04-23T17:49:10.570Z,30.05
2023-04-23T17:51:37.917Z,21.10
2023-04-23T17:54:06.005Z,28.27
2023-04-23T17:56:33.202Z,19.80
2023-04-23T17:59:00.384Z,24.25
2023-04-23T18:01:28.006Z,25.42
2023-04-23T18:03:55.898Z,24.40
2023-04-23T18:06:23.417Z,22.13
2023-04-23T18:08:50.823Z,20.50
2023-04-23T18:11:19.025Z,21.10
2023-04-23T18:13:49.132Z,30.48
2023-04-23T18:16:16.486Z,22.70
2023-04-23T18:18:43.685Z,22.58
2023-04-23T18:21:13.433Z,25.30
2023-04-23T18:23:40.712Z,27.48
2023-04-23T18:26:07.972Z,27.27
2023-04-23T18:28:37.145Z,21.90
2023-04-23T18:31:04.611Z,23.88
2023-04-23T18:33:41.812Z,24.15
2023-04-23T18:36:24.323Z,19.90
2023-04-23T18:38:51.799Z,26.17
2023-04-23T18:41:19.079Z,28.70
2023-04-23T18:43:46.533Z,32.00
2023-04-23T18:46:13.807Z,32.13
2023-04-23T18:49:01.648Z,33.47
2023-04-23T18:51:31.183Z,30.17
2023-04-23T18:53:58.369Z,30.08
2023-04-23T18:56:25.833Z,27.20
2023-04-23T18:58:53.273Z,32.78
2023-04-23T19:01:21.098Z,30.25
2023-04-23T19:03:48.557Z,27.95
2023-04-23T19:06:16.063Z,29.85
2023-04-23T19:08:43.298Z,32.17
2023-04-23T19:11:11.059Z,23.83
2023-04-23T19:13:38.201Z,20.40
2023-04-23T19:16:05.681Z,29.02
2023-04-23T19:18:33.170Z,21.50
2023-04-23T19:21:00.421Z,24.85
2023-04-23T19:23:27.632Z,27.45
2023-04-23T19:25:55.011Z,27.85
2023-04-23T19:28:24.697Z,20.95
2023-04-23T19:30:52.520Z,21.35
2023-04-23T19:33:19.784Z,21.63
2023-04-23T19:35:47.352Z,22.98
2023-04-23T19:38:14.542Z,25.60
2023-04-23T19:40:42.321Z,22.27
2023-04-23T19:43:12.123Z,19.30
2023-04-23T19:45:39.933Z,32.70
2023-04-23T19:48:08.369Z,25.58
2023-04-23T19:50:35.927Z,29.85
2023-04-23T19:53:06.088Z,29.65
2023-04-23T19:55:33.431Z,27.15
2023-04-23T19:58:00.594Z,29.35
2023-04-23T20:00:31.425Z,28.00
2023-04-23T20:02:58.931Z,29.13
2023-04-23T20:05:26.220Z,26.38
2023-04-23T20:07:53.913Z,31.73
2023-04-23T20:10:21.373Z,23.40
2023-04-23T20:12:48.727Z,28.85
2023-04-23T20:15:16.432Z,21.05
2023-04-23T20:17:43.937Z,17.08
2023-04-23T20:20:11.663Z,20.50
2023-04-23T20:22:38.960Z,15.05
2023-04-23T20:25:06.727Z,14.80
2023-04-23T20:27:34.261Z,14.35
2023-04-23T20:30:03.803Z,19.15
2023-04-23T20:32:31.314Z,15.25
2023-04-23T20:35:00.217Z,20.95
2023-04-23T20:37:28.723Z,15.60
2023-04-23T20:39:56.216Z,16.13
2023-04-23T20:42:25.533Z,22.13
2023-04-23T20:44:52.872Z,22.60
2023-04-23T20:47:20.219Z,17.85
2023-04-23T20:49:47.355Z,15.80
2023-04-23T20:52:15.417Z,25.27
2023-04-23T20:54:42.875Z,19.63
2023-04-23T20:57:10.918Z,21.27
2023-04-23T20:59:38.128Z,20.42
2023-04-23T21:02:07.530Z,18.58
2023-04-23T21:04:34.919Z,21.10
2023-04-23T21:07:02.289Z,19.02
2023-04-23T21:09:29.684Z,18.98
2023-04-23T21:11:57.371Z,19.00
2023-04-23T21:14:24.598Z,20.45
2023-04-23T21:16:53.317Z,21.02
2023-04-23T21:19:20.495Z,23.25
2023-04-23T21:21:47.800Z,18.45
2023-04-23T21:24:15.107Z,16.52
2023-04-23T21:26:43.301Z,15.20
2023-04-23T21:29:10.617Z,17.42
2023-04-23T21:31:44.192Z,13.18
2023-04-23T21:34:11.589Z,14.85
2023-04-23T21:36:38.787Z,19.58
2023-04-23T21:39:06.820Z,17.20
2023-04-23T21:41:34.068Z,14.35
2023-04-23T21:44:01.529Z,18.55
2023-04-23T21:46:30.452Z,12.65
2023-04-23T21:48:58.347Z,18.33
2023-04-23T21:51:26.207Z,14.90
2023-04-23T21:53:53.732Z,16.15
2023-04-23T21:56:21.636Z,17.95
2023-04-23T21:58:49.186Z,17.35
2023-04-23T22:01:17.573Z,18.23
2023-04-23T22:03:46.933Z,14.85
2023-04-23T22:06:15.909Z,13.63
2023-04-23T22:08:46.445Z,21.55
2023-04-23T22:11:14.762Z,13.80
2023-04-23T22:13:42.044Z,13.80
2023-04-23T22:16:24.597Z,14.93
2023-04-23T22:18:55.596Z,14.25
2023-04-23T22:21:23.248Z,15.20
2023-04-23T22:23:51.160Z,14.02
2023-04-23T22:26:18.347Z,15.80
2023-04-23T22:28:45.764Z,14.45
2023-04-23T22:31:13.021Z,15.18
2023-04-23T22:33:40.347Z,14.65
2023-04-23T22:36:07.632Z,11.75
2023-04-23T22:38:35.153Z,13.45
2023-04-23T22:41:02.495Z,25.50
2023-04-23T22:43:29.797Z,13.15
2023-04-23T22:45:57.083Z,17.38
2023-04-23T22:48:24.478Z,13.45
2023-04-23T22:50:52.687Z,16.05
2023-04-23T22:53:20.173Z,18.33
2023-04-23T22:55:47.418Z,12.48
2023-04-23T22:58:14.930Z,13.15
2023-04-23T23:00:42.298Z,14.80
2023-04-23T23:03:09.654Z,15.98
2023-04-23T23:05:36.986Z,18.77
2023-04-23T23:08:04.343Z,11.18
2023-04-23T23:10:31.762Z,10.05
2023-04-23T23:12:59.938Z,15.02
2023-04-23T23:15:27.163Z,14.55
2023-04-23T23:17:54.488Z,13.40
2023-04-23T23:20:21.809Z,11.50
2023-04-23T23:22:48.991Z,14.63
2023-04-23T23:25:16.624Z,12.75
2023-04-23T23:27:43.985Z,10.23
2023-04-23T23:30:11.361Z,11.43
2023-04-23T23:32:38.754Z,10.63
2023-04-23T23:35:06.524Z,12.13
2023-04-23T23:37:34.249Z,15.50
2023-04-23T23:40:01.419Z,8.77
2023-04-23T23:42:28.791Z,15.90
2023-04-23T23:44:56.249Z,11.93
2023-04-23T23:47:23.565Z,13.23
2023-04-23T23:49:50.890Z,13.80
2023-04-23T23:52:18.144Z,8.68
2023-04-23T23:54:45.322Z,17.88
2023-04-23T23:57:12.679Z,12.38
2023-04-23T23:59:39.900Z,12.43
